sensor_id;sensor_type;location;lat;lon;timestamp;pressure;altitude;pressure_sealevel;temperature;humidity
37776;BME280;23614;33.774;130.514;2023-04-08T00:01:50;101406.43;;;13.77;25.14
37776;BME280;23614;33.774;130.514;2023-04-08T00:04:16;101414.82;;;12.25;27.06
37776;BME280;23614;33.774;130.514;2023-04-08T00:06:42;101409.34;;;13.24;25.36
37776;BME280;23614;33.774;130.514;2023-04-08T00:09:08;101406.39;;;12.93;24.59
37776;BME280;23614;33.774;130.514;2023-04-08T00:11:34;101420.39;;;13.66;23.82
37776;BME280;23614;33.774;130.514;2023-04-08T00:14:01;101437.96;;;11.47;25.53
37776;BME280;23614;33.774;130.514;2023-04-08T00:16:26;101440.67;;;12.30;24.90
37776;BME280;23614;33.774;130.514;2023-04-08T00:18:52;101442.02;;;12.75;24.24
37776;BME280;23614;33.774;130.514;2023-04-08T00:21:18;101437.67;;;13.52;23.54
37776;BME280;23614;33.774;130.514;2023-04-08T00:23:44;101443.29;;;12.52;23.23
37776;BME280;23614;33.774;130.514;2023-04-08T00:26:10;101438.05;;;13.52;23.22
37776;BME280;23614;33.774;130.514;2023-04-08T00:28:36;101443.53;;;13.91;23.48
37776;BME280;23614;33.774;130.514;2023-04-08T00:31:02;101433.72;;;12.86;24.28
37776;BME280;23614;33.774;130.514;2023-04-08T00:33:28;101440.55;;;13.11;24.24
37776;BME280;23614;33.774;130.514;2023-04-08T00:35:54;101449.06;;;13.07;24.13
37776;BME280;23614;33.774;130.514;2023-04-08T00:38:20;101443.18;;;14.07;23.41
37776;BME280;23614;33.774;130.514;2023-04-08T00:40:46;101447.78;;;13.69;24.31
37776;BME280;23614;33.774;130.514;2023-04-08T00:43:12;101457.86;;;11.17;25.45
37776;BME280;23614;33.774;130.514;2023-04-08T00:45:38;101450.21;;;13.64;23.74
37776;BME280;23614;33.774;130.514;2023-04-08T00:48:05;101457.26;;;12.97;23.97
37776;BME280;23614;33.774;130.514;2023-04-08T00:50:30;101458.82;;;13.66;23.56
37776;BME280;23614;33.774;130.514;2023-04-08T00:52:56;101455.37;;;14.44;22.71
37776;BME280;23614;33.774;130.514;2023-04-08T00:55:22;101455.58;;;13.87;22.67
37776;BME280;23614;33.774;130.514;2023-04-08T00:57:48;101463.28;;;13.74;23.29
37776;BME280;23614;33.774;130.514;2023-04-08T01:00:14;101462.14;;;13.60;23.17
37776;BME280;23614;33.774;130.514;2023-04-08T01:02:45;101458.14;;;14.26;23.07
37776;BME280;23614;33.774;130.514;2023-04-08T01:05:08;101462.53;;;14.22;22.67
37776;BME280;23614;33.774;130.514;2023-04-08T01:07:33;101465.48;;;13.76;21.75
37776;BME280;23614;33.774;130.514;2023-04-08T01:10:02;101454.77;;;14.46;21.56
37776;BME280;23614;33.774;130.514;2023-04-08T01:12:28;101462.41;;;13.68;22.47
37776;BME280;23614;33.774;130.514;2023-04-08T01:14:54;101458.70;;;14.26;21.56
37776;BME280;23614;33.774;130.514;2023-04-08T01:17:20;101453.95;;;14.33;20.84
37776;BME280;23614;33.774;130.514;2023-04-08T01:19:42;101463.61;;;14.17;22.39
37776;BME280;23614;33.774;130.514;2023-04-08T01:22:17;101464.75;;;13.15;21.84
37776;BME280;23614;33.774;130.514;2023-04-08T01:24:38;101463.41;;;14.06;21.89
37776;BME280;23614;33.774;130.514;2023-04-08T01:27:00;101464.95;;;14.76;21.30
37776;BME280;23614;33.774;130.514;2023-04-08T01:29:26;101465.22;;;12.74;23.28
37776;BME280;23614;33.774;130.514;2023-04-08T01:31:53;101462.52;;;14.54;22.34
37776;BME280;23614;33.774;130.514;2023-04-08T01:34:19;101466.07;;;14.54;22.20
37776;BME280;23614;33.774;130.514;2023-04-08T01:36:45;101467.46;;;14.53;22.06
37776;BME280;23614;33.774;130.514;2023-04-08T01:39:10;101470.33;;;14.78;21.79
37776;BME280;23614;33.774;130.514;2023-04-08T01:41:36;101468.10;;;14.11;21.09
37776;BME280;23614;33.774;130.514;2023-04-08T01:44:03;101460.79;;;14.58;20.54
37776;BME280;23614;33.774;130.514;2023-04-08T01:46:29;101462.67;;;13.04;20.21
37776;BME280;23614;33.774;130.514;2023-04-08T01:48:54;101456.92;;;14.17;20.17
37776;BME280;23614;33.774;130.514;2023-04-08T01:51:20;101461.67;;;14.48;18.83
37776;BME280;23614;33.774;130.514;2023-04-08T01:53:46;101466.92;;;14.66;18.13
37776;BME280;23614;33.774;130.514;2023-04-08T01:56:14;101455.68;;;14.91;17.97
37776;BME280;23614;33.774;130.514;2023-04-08T01:58:40;101458.26;;;13.98;18.90
37776;BME280;23614;33.774;130.514;2023-04-08T02:01:05;101455.08;;;14.51;17.46
37776;BME280;23614;33.774;130.514;2023-04-08T02:03:30;101453.85;;;14.44;19.52
37776;BME280;23614;33.774;130.514;2023-04-08T02:05:56;101461.20;;;13.81;18.75
37776;BME280;23614;33.774;130.514;2023-04-08T02:08:22;101457.95;;;14.29;20.04
37776;BME280;23614;33.774;130.514;2023-04-08T02:10:48;101449.18;;;14.75;19.71
37776;BME280;23614;33.774;130.514;2023-04-08T02:13:14;101451.61;;;14.42;20.92
37776;BME280;23614;33.774;130.514;2023-04-08T02:15:44;101446.25;;;14.71;19.55
37776;BME280;23614;33.774;130.514;2023-04-08T02:18:11;101447.91;;;14.07;20.16
37776;BME280;23614;33.774;130.514;2023-04-08T02:20:36;101450.97;;;15.56;18.56
37776;BME280;23614;33.774;130.514;2023-04-08T02:23:02;101443.53;;;15.56;19.72
37776;BME280;23614;33.774;130.514;2023-04-08T02:25:25;101449.66;;;15.69;20.18
37776;BME280;23614;33.774;130.514;2023-04-08T02:27:52;101459.32;;;15.27;19.58
37776;BME280;23614;33.774;130.514;2023-04-08T02:30:16;101445.35;;;15.57;19.94
37776;BME280;23614;33.774;130.514;2023-04-08T02:32:43;101447.28;;;15.09;20.46
37776;BME280;23614;33.774;130.514;2023-04-08T02:35:10;101443.45;;;14.56;21.28
37776;BME280;23614;33.774;130.514;2023-04-08T02:37:34;101457.23;;;13.62;20.93
37776;BME280;23614;33.774;130.514;2023-04-08T02:40:00;101443.11;;;13.21;22.17
37776;BME280;23614;33.774;130.514;2023-04-08T02:42:26;101436.48;;;14.25;21.87
37776;BME280;23614;33.774;130.514;2023-04-08T02:44:52;101417.23;;;15.53;21.61
37776;BME280;23614;33.774;130.514;2023-04-08T02:47:18;101419.91;;;16.17;20.76
37776;BME280;23614;33.774;130.514;2023-04-08T02:49:44;101422.37;;;14.41;21.62
37776;BME280;23614;33.774;130.514;2023-04-08T02:52:11;101415.09;;;14.85;22.15
37776;BME280;23614;33.774;130.514;2023-04-08T02:54:36;101413.37;;;14.30;22.87
37776;BME280;23614;33.774;130.514;2023-04-08T02:57:02;101419.64;;;14.03;22.50
37776;BME280;23614;33.774;130.514;2023-04-08T02:59:28;101424.80;;;13.69;22.51
37776;BME280;23614;33.774;130.514;2023-04-08T03:01:54;101404.87;;;14.58;21.40
37776;BME280;23614;33.774;130.514;2023-04-08T03:04:19;101399.54;;;15.45;21.62
37776;BME280;23614;33.774;130.514;2023-04-08T03:06:45;101397.27;;;15.12;22.22
37776;BME280;23614;33.774;130.514;2023-04-08T03:09:12;101402.46;;;14.35;19.75
37776;BME280;23614;33.774;130.514;2023-04-08T03:11:38;101393.58;;;15.48;19.71
37776;BME280;23614;33.774;130.514;2023-04-08T03:14:03;101402.68;;;13.85;21.48
37776;BME280;23614;33.774;130.514;2023-04-08T03:16:30;101412.21;;;13.44;22.41
37776;BME280;23614;33.774;130.514;2023-04-08T03:18:56;101410.40;;;13.34;21.49
37776;BME280;23614;33.774;130.514;2023-04-08T03:21:22;101408.34;;;13.14;22.51
37776;BME280;23614;33.774;130.514;2023-04-08T03:23:48;101387.96;;;15.27;21.90
37776;BME280;23614;33.774;130.514;2023-04-08T03:26:14;101388.11;;;14.80;23.37
37776;BME280;23614;33.774;130.514;2023-04-08T03:28:40;101397.80;;;14.19;23.16
37776;BME280;23614;33.774;130.514;2023-04-08T03:31:05;101398.70;;;13.82;22.87
37776;BME280;23614;33.774;130.514;2023-04-08T03:33:32;101389.74;;;14.31;22.28
37776;BME280;23614;33.774;130.514;2023-04-08T03:35:58;101382.03;;;14.17;21.78
37776;BME280;23614;33.774;130.514;2023-04-08T03:38:24;101394.82;;;13.27;22.38
37776;BME280;23614;33.774;130.514;2023-04-08T03:40:50;101384.41;;;13.61;21.86
37776;BME280;23614;33.774;130.514;2023-04-08T03:43:16;101385.75;;;14.03;23.00
37776;BME280;23614;33.774;130.514;2023-04-08T03:45:42;101397.27;;;13.61;21.30
37776;BME280;23614;33.774;130.514;2023-04-08T03:48:08;101390.42;;;14.02;20.23
37776;BME280;23614;33.774;130.514;2023-04-08T03:50:34;101381.70;;;14.39;20.25
37776;BME280;23614;33.774;130.514;2023-04-08T03:53:00;101378.55;;;12.72;21.45
37776;BME280;23614;33.774;130.514;2023-04-08T03:55:26;101396.78;;;13.18;21.36
37776;BME280;23614;33.774;130.514;2023-04-08T03:57:52;101373.65;;;13.91;21.80
37776;BME280;23614;33.774;130.514;2023-04-08T04:00:18;101386.36;;;13.98;21.09
37776;BME280;23614;33.774;130.514;2023-04-08T04:02:44;101377.37;;;14.21;21.42
37776;BME280;23614;33.774;130.514;2023-04-08T04:05:10;101371.63;;;14.51;20.93
37776;BME280;23614;33.774;130.514;2023-04-08T04:07:36;101373.57;;;14.18;21.47
37776;BME280;23614;33.774;130.514;2023-04-08T04:10:02;101365.48;;;14.19;21.66
37776;BME280;23614;33.774;130.514;2023-04-08T04:12:28;101370.51;;;13.30;22.17
37776;BME280;23614;33.774;130.514;2023-04-08T04:14:54;101374.90;;;13.51;22.68
37776;BME280;23614;33.774;130.514;2023-04-08T04:17:20;101374.19;;;14.34;22.31
37776;BME280;23614;33.774;130.514;2023-04-08T04:19:46;101361.08;;;13.55;20.52
37776;BME280;23614;33.774;130.514;2023-04-08T04:22:12;101367.46;;;13.80;21.58
37776;BME280;23614;33.774;130.514;2023-04-08T04:24:38;101355.92;;;14.02;21.01
37776;BME280;23614;33.774;130.514;2023-04-08T04:27:04;101346.21;;;14.65;19.00
37776;BME280;23614;33.774;130.514;2023-04-08T04:29:31;101331.68;;;14.39;19.41
37776;BME280;23614;33.774;130.514;2023-04-08T04:31:56;101340.48;;;14.54;19.90
37776;BME280;23614;33.774;130.514;2023-04-08T04:34:22;101351.52;;;14.88;20.56
37776;BME280;23614;33.774;130.514;2023-04-08T04:36:48;101376.53;;;14.04;20.93
37776;BME280;23614;33.774;130.514;2023-04-08T04:39:14;101353.72;;;14.05;21.43
37776;BME280;23614;33.774;130.514;2023-04-08T04:41:40;101339.29;;;15.36;21.13
37776;BME280;23614;33.774;130.514;2023-04-08T04:44:06;101353.01;;;13.05;23.37
37776;BME280;23614;33.774;130.514;2023-04-08T04:46:32;101345.79;;;13.69;22.14
37776;BME280;23614;33.774;130.514;2023-04-08T04:48:58;101366.08;;;14.07;21.85
37776;BME280;23614;33.774;130.514;2023-04-08T04:51:24;101333.26;;;13.96;22.43
37776;BME280;23614;33.774;130.514;2023-04-08T04:53:50;101328.53;;;12.99;22.67
37776;BME280;23614;33.774;130.514;2023-04-08T04:56:16;101321.16;;;13.77;22.83
37776;BME280;23614;33.774;130.514;2023-04-08T04:58:43;101330.11;;;14.30;23.01
37776;BME280;23614;33.774;130.514;2023-04-08T05:01:08;101314.19;;;12.84;24.77
37776;BME280;23614;33.774;130.514;2023-04-08T05:03:34;101342.43;;;13.59;24.50
37776;BME280;23614;33.774;130.514;2023-04-08T05:06:00;101328.01;;;13.45;24.28
37776;BME280;23614;33.774;130.514;2023-04-08T05:08:26;101324.32;;;13.91;23.52
37776;BME280;23614;33.774;130.514;2023-04-08T05:10:52;101312.28;;;14.33;22.53
37776;BME280;23614;33.774;130.514;2023-04-08T05:13:18;101329.73;;;13.28;23.61
37776;BME280;23614;33.774;130.514;2023-04-08T05:15:44;101320.41;;;12.58;24.04
37776;BME280;23614;33.774;130.514;2023-04-08T05:18:10;101332.89;;;12.39;25.64
37776;BME280;23614;33.774;130.514;2023-04-08T05:20:36;101328.97;;;12.28;26.33
37776;BME280;23614;33.774;130.514;2023-04-08T05:23:02;101335.51;;;13.59;25.96
37776;BME280;23614;33.774;130.514;2023-04-08T05:25:29;101330.36;;;13.43;25.61
37776;BME280;23614;33.774;130.514;2023-04-08T05:27:54;101333.01;;;13.23;24.91
37776;BME280;23614;33.774;130.514;2023-04-08T05:30:20;101340.29;;;13.57;22.82
37776;BME280;23614;33.774;130.514;2023-04-08T05:32:46;101343.85;;;12.72;24.03
37776;BME280;23614;33.774;130.514;2023-04-08T05:35:12;101354.87;;;13.51;23.81
37776;BME280;23614;33.774;130.514;2023-04-08T05:37:38;101344.67;;;13.10;24.88
37776;BME280;23614;33.774;130.514;2023-04-08T05:40:04;101356.75;;;13.78;25.39
37776;BME280;23614;33.774;130.514;2023-04-08T05:42:30;101341.41;;;13.70;25.46
37776;BME280;23614;33.774;130.514;2023-04-08T05:44:56;101330.92;;;13.40;25.89
37776;BME280;23614;33.774;130.514;2023-04-08T05:47:22;101334.18;;;13.56;25.93
37776;BME280;23614;33.774;130.514;2023-04-08T05:49:48;101324.69;;;13.41;25.48
37776;BME280;23614;33.774;130.514;2023-04-08T05:52:14;101329.65;;;13.43;25.34
37776;BME280;23614;33.774;130.514;2023-04-08T05:54:42;101318.96;;;13.77;25.41
37776;BME280;23614;33.774;130.514;2023-04-08T05:57:05;101315.54;;;12.45;26.61
37776;BME280;23614;33.774;130.514;2023-04-08T05:59:32;101330.36;;;13.01;26.49
37776;BME280;23614;33.774;130.514;2023-04-08T06:01:58;101353.38;;;12.99;26.62
37776;BME280;23614;33.774;130.514;2023-04-08T06:04:24;101304.87;;;12.45;27.68
37776;BME280;23614;33.774;130.514;2023-04-08T06:06:50;101297.36;;;13.48;26.25
37776;BME280;23614;33.774;130.514;2023-04-08T06:09:15;101283.75;;;13.32;26.69
37776;BME280;23614;33.774;130.514;2023-04-08T06:11:42;101308.75;;;12.68;27.65
37776;BME280;23614;33.774;130.514;2023-04-08T06:14:08;101293.16;;;13.57;26.99
37776;BME280;23614;33.774;130.514;2023-04-08T06:16:33;101304.69;;;13.54;27.21
37776;BME280;23614;33.774;130.514;2023-04-08T06:18:59;101298.89;;;13.36;27.93
37776;BME280;23614;33.774;130.514;2023-04-08T06:21:25;101306.05;;;12.90;28.15
37776;BME280;23614;33.774;130.514;2023-04-08T06:23:52;101312.19;;;12.40;29.38
37776;BME280;23614;33.774;130.514;2023-04-08T06:26:18;101307.27;;;12.99;28.83
37776;BME280;23614;33.774;130.514;2023-04-08T06:28:44;101301.11;;;13.55;28.88
37776;BME280;23614;33.774;130.514;2023-04-08T06:31:09;101304.52;;;12.69;30.14
37776;BME280;23614;33.774;130.514;2023-04-08T06:33:35;101306.28;;;13.24;30.06
37776;BME280;23614;33.774;130.514;2023-04-08T06:36:03;101302.35;;;12.74;29.22
37776;BME280;23614;33.774;130.514;2023-04-08T06:38:28;101306.59;;;12.49;29.12
37776;BME280;23614;33.774;130.514;2023-04-08T06:40:53;101313.60;;;13.23;29.89
37776;BME280;23614;33.774;130.514;2023-04-08T06:43:20;101316.69;;;13.01;29.97
37776;BME280;23614;33.774;130.514;2023-04-08T06:45:45;101314.99;;;13.13;29.57
37776;BME280;23614;33.774;130.514;2023-04-08T06:48:12;101331.47;;;12.74;29.34
37776;BME280;23614;33.774;130.514;2023-04-08T06:50:37;101315.71;;;13.63;28.48
37776;BME280;23614;33.774;130.514;2023-04-08T06:53:04;101311.25;;;13.23;29.41
37776;BME280;23614;33.774;130.514;2023-04-08T06:55:29;101341.54;;;12.36;29.08
37776;BME280;23614;33.774;130.514;2023-04-08T06:57:55;101311.69;;;11.79;30.13
37776;BME280;23614;33.774;130.514;2023-04-08T07:00:22;101316.08;;;12.73;29.17
37776;BME280;23614;33.774;130.514;2023-04-08T07:02:48;101310.60;;;13.06;28.31
37776;BME280;23614;33.774;130.514;2023-04-08T07:05:14;101302.68;;;12.92;27.56
37776;BME280;23614;33.774;130.514;2023-04-08T07:07:40;101306.97;;;12.75;28.03
37776;BME280;23614;33.774;130.514;2023-04-08T07:10:06;101316.83;;;12.61;28.23
37776;BME280;23614;33.774;130.514;2023-04-08T07:12:31;101315.71;;;12.04;28.87
37776;BME280;23614;33.774;130.514;2023-04-08T07:14:58;101296.67;;;12.81;28.46
37776;BME280;23614;33.774;130.514;2023-04-08T07:17:24;101282.75;;;12.38;28.68
37776;BME280;23614;33.774;130.514;2023-04-08T07:19:50;101299.51;;;12.85;27.60
37776;BME280;23614;33.774;130.514;2023-04-08T07:22:16;101294.12;;;12.73;27.28
37776;BME280;23614;33.774;130.514;2023-04-08T07:24:42;101296.67;;;12.68;26.85
37776;BME280;23614;33.774;130.514;2023-04-08T07:27:08;101291.95;;;13.65;25.78
37776;BME280;23614;33.774;130.514;2023-04-08T07:29:34;101293.94;;;13.50;26.17
37776;BME280;23614;33.774;130.514;2023-04-08T07:31:59;101292.95;;;13.17;27.11
37776;BME280;23614;33.774;130.514;2023-04-08T07:34:26;101292.48;;;12.81;27.26
37776;BME280;23614;33.774;130.514;2023-04-08T07:36:52;101287.83;;;13.56;25.60
37776;BME280;23614;33.774;130.514;2023-04-08T07:39:18;101281.56;;;13.82;25.15
37776;BME280;23614;33.774;130.514;2023-04-08T07:41:44;101276.36;;;13.72;25.34
37776;BME280;23614;33.774;130.514;2023-04-08T07:44:10;101282.91;;;13.49;26.45
37776;BME280;23614;33.774;130.514;2023-04-08T07:46:37;101280.34;;;13.78;25.91
37776;BME280;23614;33.774;130.514;2023-04-08T07:49:02;101282.31;;;12.70;26.30
37776;BME280;23614;33.774;130.514;2023-04-08T07:51:28;101270.49;;;13.94;25.80
37776;BME280;23614;33.774;130.514;2023-04-08T07:53:54;101271.30;;;14.17;25.23
37776;BME280;23614;33.774;130.514;2023-04-08T07:56:20;101282.51;;;13.41;25.41
37776;BME280;23614;33.774;130.514;2023-04-08T07:58:46;101268.09;;;14.06;24.91
37776;BME280;23614;33.774;130.514;2023-04-08T08:01:20;101285.31;;;13.31;25.40
37776;BME280;23614;33.774;130.514;2023-04-08T08:03:38;101279.38;;;13.98;25.15
37776;BME280;23614;33.774;130.514;2023-04-08T08:06:04;101295.53;;;12.84;26.04
37776;BME280;23614;33.774;130.514;2023-04-08T08:08:31;101287.15;;;12.64;26.02
37776;BME280;23614;33.774;130.514;2023-04-08T08:10:56;101290.97;;;13.18;26.47
37776;BME280;23614;33.774;130.514;2023-04-08T08:13:22;101288.80;;;13.62;25.93
37776;BME280;23614;33.774;130.514;2023-04-08T08:15:52;101292.88;;;13.70;25.73
37776;BME280;23614;33.774;130.514;2023-04-08T08:18:14;101298.90;;;13.47;25.84
37776;BME280;23614;33.774;130.514;2023-04-08T08:20:40;101301.10;;;13.42;26.30
37776;BME280;23614;33.774;130.514;2023-04-08T08:23:06;101292.73;;;12.73;27.54
37776;BME280;23614;33.774;130.514;2023-04-08T08:25:32;101289.28;;;13.19;26.53
37776;BME280;23614;33.774;130.514;2023-04-08T08:27:58;101296.41;;;13.92;26.08
37776;BME280;23614;33.774;130.514;2023-04-08T08:30:24;101296.35;;;13.39;26.41
37776;BME280;23614;33.774;130.514;2023-04-08T08:32:50;101299.84;;;12.09;26.81
37776;BME280;23614;33.774;130.514;2023-04-08T08:35:16;101307.07;;;13.44;26.22
37776;BME280;23614;33.774;130.514;2023-04-08T08:37:42;101288.69;;;13.95;25.74
37776;BME280;23614;33.774;130.514;2023-04-08T08:40:09;101283.69;;;13.84;26.13
37776;BME280;23614;33.774;130.514;2023-04-08T08:42:35;101280.34;;;14.20;25.94
37776;BME280;23614;33.774;130.514;2023-04-08T08:45:02;101278.86;;;14.27;25.98
37776;BME280;23614;33.774;130.514;2023-04-08T08:47:26;101285.61;;;14.88;25.31
37776;BME280;23614;33.774;130.514;2023-04-08T08:49:52;101296.34;;;13.29;26.79
37776;BME280;23614;33.774;130.514;2023-04-08T08:52:18;101303.69;;;13.51;26.54
37776;BME280;23614;33.774;130.514;2023-04-08T08:54:44;101294.55;;;14.32;25.84
37776;BME280;23614;33.774;130.514;2023-04-08T08:57:17;101295.63;;;14.15;25.31
37776;BME280;23614;33.774;130.514;2023-04-08T08:59:36;101291.33;;;13.57;25.85
37776;BME280;23614;33.774;130.514;2023-04-08T09:02:02;101297.33;;;13.58;26.30
37776;BME280;23614;33.774;130.514;2023-04-08T09:04:28;101296.16;;;14.01;26.14
37776;BME280;23614;33.774;130.514;2023-04-08T09:07:09;101313.01;;;13.20;24.98
37776;BME280;23614;33.774;130.514;2023-04-08T09:09:20;101302.63;;;12.30;26.09
37776;BME280;23614;33.774;130.514;2023-04-08T09:11:47;101302.38;;;14.33;24.56
37776;BME280;23614;33.774;130.514;2023-04-08T09:14:27;101292.76;;;13.57;26.11
37776;BME280;23614;33.774;130.514;2023-04-08T09:16:43;101296.76;;;13.32;27.35
37776;BME280;23614;33.774;130.514;2023-04-08T09:19:10;101293.26;;;14.05;26.79
37776;BME280;23614;33.774;130.514;2023-04-08T09:21:30;101298.97;;;13.16;27.47
37776;BME280;23614;33.774;130.514;2023-04-08T09:23:56;101307.25;;;13.42;27.02
37776;BME280;23614;33.774;130.514;2023-04-08T09:26:23;101303.29;;;13.47;26.91
37776;BME280;23614;33.774;130.514;2023-04-08T09:28:59;101309.67;;;13.58;26.61
37776;BME280;23614;33.774;130.514;2023-04-08T09:31:23;101307.78;;;13.37;26.89
37776;BME280;23614;33.774;130.514;2023-04-08T09:33:40;101306.39;;;13.62;26.68
37776;BME280;23614;33.774;130.514;2023-04-08T09:36:06;101305.84;;;13.53;27.39
37776;BME280;23614;33.774;130.514;2023-04-08T09:38:32;101304.61;;;13.54;27.25
37776;BME280;23614;33.774;130.514;2023-04-08T09:40:59;101302.77;;;13.45;27.01
37776;BME280;23614;33.774;130.514;2023-04-08T09:43:26;101308.72;;;13.54;27.69
37776;BME280;23614;33.774;130.514;2023-04-08T09:45:50;101307.54;;;13.23;27.96
37776;BME280;23614;33.774;130.514;2023-04-08T09:48:21;101311.50;;;12.62;29.02
37776;BME280;23614;33.774;130.514;2023-04-08T09:50:46;101311.03;;;13.21;28.88
37776;BME280;23614;33.774;130.514;2023-04-08T09:53:12;101325.31;;;13.18;28.37
37776;BME280;23614;33.774;130.514;2023-04-08T09:55:36;101322.33;;;12.18;28.98
37776;BME280;23614;33.774;130.514;2023-04-08T09:58:03;101319.12;;;12.93;28.21
37776;BME280;23614;33.774;130.514;2023-04-08T10:00:31;101316.11;;;13.16;28.16
37776;BME280;23614;33.774;130.514;2023-04-08T10:02:55;101321.82;;;13.69;27.80
37776;BME280;23614;33.774;130.514;2023-04-08T10:05:18;101324.15;;;12.63;28.84
37776;BME280;23614;33.774;130.514;2023-04-08T10:07:44;101321.64;;;12.96;28.93
37776;BME280;23614;33.774;130.514;2023-04-08T10:10:10;101322.11;;;12.52;29.09
37776;BME280;23614;33.774;130.514;2023-04-08T10:12:36;101322.48;;;12.81;29.11
37776;BME280;23614;33.774;130.514;2023-04-08T10:15:34;101326.99;;;12.94;29.02
37776;BME280;23614;33.774;130.514;2023-04-08T10:17:28;101331.18;;;13.43;28.60
37776;BME280;23614;33.774;130.514;2023-04-08T10:19:54;101330.50;;;13.15;28.87
37776;BME280;23614;33.774;130.514;2023-04-08T10:22:52;101332.43;;;13.38;28.93
37776;BME280;23614;33.774;130.514;2023-04-08T10:25:28;101337.51;;;13.66;28.75
37776;BME280;23614;33.774;130.514;2023-04-08T10:27:38;101340.34;;;13.76;28.68
37776;BME280;23614;33.774;130.514;2023-04-08T10:29:37;101345.70;;;13.31;29.34
37776;BME280;23614;33.774;130.514;2023-04-08T10:32:03;101346.06;;;13.28;29.53
37776;BME280;23614;33.774;130.514;2023-04-08T10:34:29;101337.57;;;13.78;29.26
37776;BME280;23614;33.774;130.514;2023-04-08T10:36:56;101338.45;;;13.68;29.70
37776;BME280;23614;33.774;130.514;2023-04-08T10:39:21;101338.67;;;13.71;29.44
37776;BME280;23614;33.774;130.514;2023-04-08T10:41:48;101337.54;;;13.72;29.44
37776;BME280;23614;33.774;130.514;2023-04-08T10:44:22;101336.01;;;13.54;30.00
37776;BME280;23614;33.774;130.514;2023-04-08T10:46:39;101341.34;;;13.53;30.15
37776;BME280;23614;33.774;130.514;2023-04-08T10:49:05;101345.44;;;13.38;30.73
37776;BME280;23614;33.774;130.514;2023-04-08T10:51:33;101343.15;;;13.70;30.46
37776;BME280;23614;33.774;130.514;2023-04-08T10:54:05;101350.22;;;14.03;29.83
37776;BME280;23614;33.774;130.514;2023-04-08T10:56:23;101359.90;;;13.26;30.91
37776;BME280;23614;33.774;130.514;2023-04-08T10:58:49;101360.25;;;12.75;31.46
37776;BME280;23614;33.774;130.514;2023-04-08T11:01:15;101363.93;;;13.42;31.15
37776;BME280;23614;33.774;130.514;2023-04-08T11:03:42;101365.62;;;13.88;29.95
37776;BME280;23614;33.774;130.514;2023-04-08T11:06:07;101373.03;;;13.65;28.64
37776;BME280;23614;33.774;130.514;2023-04-08T11:08:34;101370.50;;;13.94;27.92
37776;BME280;23614;33.774;130.514;2023-04-08T11:10:59;101368.86;;;14.33;28.25
37776;BME280;23614;33.774;130.514;2023-04-08T11:13:26;101373.03;;;14.61;28.65
37776;BME280;23614;33.774;130.514;2023-04-08T11:15:52;101372.27;;;14.22;28.57
37776;BME280;23614;33.774;130.514;2023-04-08T11:18:18;101381.81;;;14.10;28.91
37776;BME280;23614;33.774;130.514;2023-04-08T11:20:44;101377.64;;;14.25;28.61
37776;BME280;23614;33.774;130.514;2023-04-08T11:23:12;101380.30;;;14.27;28.70
37776;BME280;23614;33.774;130.514;2023-04-08T11:25:35;101388.12;;;13.37;29.96
37776;BME280;23614;33.774;130.514;2023-04-08T11:28:01;101387.62;;;14.07;29.20
37776;BME280;23614;33.774;130.514;2023-04-08T11:30:27;101390.08;;;13.85;29.51
37776;BME280;23614;33.774;130.514;2023-04-08T11:32:53;101389.82;;;14.06;29.29
37776;BME280;23614;33.774;130.514;2023-04-08T11:35:19;101389.57;;;14.16;29.10
37776;BME280;23614;33.774;130.514;2023-04-08T11:37:45;101394.99;;;14.07;29.38
37776;BME280;23614;33.774;130.514;2023-04-08T11:40:12;101400.20;;;13.63;29.67
37776;BME280;23614;33.774;130.514;2023-04-08T11:42:37;101401.20;;;14.20;29.17
37776;BME280;23614;33.774;130.514;2023-04-08T11:45:10;101397.29;;;14.16;29.27
37776;BME280;23614;33.774;130.514;2023-04-08T11:47:31;101393.89;;;14.44;28.88
37776;BME280;23614;33.774;130.514;2023-04-08T11:49:55;101395.66;;;14.08;29.05
37776;BME280;23614;33.774;130.514;2023-04-08T11:52:21;101394.47;;;14.15;29.01
37776;BME280;23614;33.774;130.514;2023-04-08T11:54:48;101392.31;;;14.44;28.73
37776;BME280;23614;33.774;130.514;2023-04-08T11:57:13;101391.62;;;14.50;28.89
37776;BME280;23614;33.774;130.514;2023-04-08T11:59:39;101388.29;;;14.51;28.74
37776;BME280;23614;33.774;130.514;2023-04-08T12:02:05;101391.27;;;14.16;29.05
37776;BME280;23614;33.774;130.514;2023-04-08T12:04:31;101393.99;;;14.31;29.02
37776;BME280;23614;33.774;130.514;2023-04-08T12:06:57;101395.93;;;14.27;29.10
37776;BME280;23614;33.774;130.514;2023-04-08T12:09:23;101399.12;;;13.90;29.49
37776;BME280;23614;33.774;130.514;2023-04-08T12:11:49;101397.85;;;14.01;29.46
37776;BME280;23614;33.774;130.514;2023-04-08T12:14:15;101398.70;;;14.24;29.03
37776;BME280;23614;33.774;130.514;2023-04-08T12:16:41;101397.40;;;14.28;29.32
37776;BME280;23614;33.774;130.514;2023-04-08T12:19:07;101397.55;;;14.09;29.73
37776;BME280;23614;33.774;130.514;2023-04-08T12:21:33;101394.49;;;14.37;29.21
37776;BME280;23614;33.774;130.514;2023-04-08T12:23:59;101398.59;;;14.06;29.73